Time;durP1;ratioP1;P1;durP2;ratioP2;P2;SDS_P1;SDS_P2;PMS_P1;PMS_P2;Temp;Humidity;BMP_temperature;BMP_pressure;BME280_temperature;BME280_humidity;BME280_pressure;Samples;Min_cycle;Max_cycle;Signal;HPM_P1;HPM_P2
2022/05/12 00:02:15;;;;;;;7.82;1.90;;;10.80;99.90;;;;;;5052091;28;20047;-71
2022/05/12 00:04:41;;;;;;;6.07;1.88;;;10.70;99.90;;;;;;5056583;28;20029;-73
2022/05/12 00:07:07;;;;;;;7.22;2.03;;;10.70;99.90;;;;;;5048900;28;20045;-72
2022/05/12 00:09:33;;;;;;;16.17;2.22;;;10.70;99.90;;;;;;5081669;28;20052;-71
2022/05/12 00:11:59;;;;;;;8.52;2.42;;;10.60;99.90;;;;;;5035256;28;20406;-71
2022/05/12 00:14:25;;;;;;;5.55;1.83;;;10.60;99.90;;;;;;5052315;28;20048;-70
2022/05/12 00:16:50;;;;;;;6.32;2.00;;;10.50;99.90;;;;;;5050140;28;20037;-73
2022/05/12 00:19:16;;;;;;;9.50;2.00;;;10.50;99.90;;;;;;5049856;28;20041;-73
2022/05/12 00:21:43;;;;;;;6.05;1.70;;;10.40;99.90;;;;;;5045572;28;20037;-70
2022/05/12 00:24:09;;;;;;;7.15;2.00;;;10.30;99.90;;;;;;5050600;28;20492;-72
2022/05/12 00:26:36;;;;;;;6.70;1.75;;;10.30;99.90;;;;;;5052539;28;20138;-73
2022/05/12 00:29:05;;;;;;;6.72;1.95;;;10.20;99.90;;;;;;5058321;28;20098;-72
2022/05/12 00:31:32;;;;;;;7.78;1.90;;;10.20;99.90;;;;;;5051386;28;20487;-71
2022/05/12 00:33:58;;;;;;;6.70;2.13;;;10.10;99.90;;;;;;5049109;28;20041;-73
2022/05/12 00:36:23;;;;;;;5.50;1.83;;;10.00;99.90;;;;;;5043942;28;20056;-73
2022/05/12 00:38:49;;;;;;;10.18;2.22;;;9.90;99.90;;;;;;5046403;28;20029;-70
2022/05/12 00:41:15;;;;;;;9.35;2.03;;;9.90;99.90;;;;;;5047760;28;20040;-71
2022/05/12 00:43:55;;;;;;;6.75;1.98;;;9.80;99.90;;;;;;5049025;28;20033;-72
2022/05/12 00:46:24;;;;;;;5.38;1.70;;;9.70;99.90;;;;;;5051619;28;20481;-71
2022/05/12 00:48:52;;;;;;;5.82;1.80;;;9.70;99.90;;;;;;5054834;28;20037;-74
2022/05/12 00:51:22;;;;;;;7.15;1.90;;;9.70;99.90;;;;;;5055261;28;20051;-73
2022/05/12 00:53:49;;;;;;;6.50;1.92;;;9.80;99.90;;;;;;5049723;28;20037;-75
2022/05/12 00:56:20;;;;;;;7.47;2.10;;;9.80;99.90;;;;;;5048972;28;20025;-75
2022/05/12 00:58:49;;;;;;;7.32;2.10;;;9.80;99.90;;;;;;5079276;28;20492;-72
2022/05/12 01:01:15;;;;;;;4.13;1.90;;;9.80;99.90;;;;;;5050213;28;20032;-72
2022/05/12 01:03:42;;;;;;;5.05;2.10;;;9.70;99.90;;;;;;5031544;28;20033;-74
2022/05/12 01:06:09;;;;;;;9.13;2.28;;;9.70;99.90;;;;;;5045919;28;20465;-73
2022/05/12 01:08:35;;;;;;;6.47;1.83;;;9.70;99.90;;;;;;5053363;28;20032;-72
2022/05/12 01:11:06;;;;;;;8.85;2.00;;;9.70;99.90;;;;;;5054935;28;20074;-74
2022/05/12 01:13:32;;;;;;;4.80;2.60;;;9.60;99.90;;;;;;5053398;28;20037;-72
2022/05/12 01:16:00;;;;;;;6.63;2.30;;;9.60;99.90;;;;;;5056166;28;20082;-73
2022/05/12 01:18:28;;;;;;;3.78;2.00;;;9.70;99.90;;;;;;5062443;28;20116;-73
2022/05/12 01:20:54;;;;;;;7.13;2.25;;;9.70;99.90;;;;;;5057272;28;20037;-73
2022/05/12 01:23:38;;;;;;;8.40;2.30;;;9.70;99.90;;;;;;5053645;28;20414;-75
2022/05/12 01:26:11;;;;;;;6.72;2.00;;;9.70;99.90;;;;;;5051342;28;20037;-74
2022/05/12 01:28:37;;;;;;;8.52;2.17;;;9.70;99.90;;;;;;5052051;28;20037;-73
2022/05/12 01:31:03;;;;;;;5.45;2.40;;;9.50;99.90;;;;;;5051654;28;20568;-73
2022/05/12 01:33:30;;;;;;;11.63;2.50;;;9.50;99.90;;;;;;5052240;28;20124;-70
2022/05/12 01:35:56;;;;;;;9.45;2.67;;;9.50;99.90;;;;;;5084260;28;20400;-72
2022/05/12 01:38:22;;;;;;;5.13;2.47;;;9.40;99.90;;;;;;5051789;28;20083;-71
2022/05/12 01:40:47;;;;;;;8.45;2.78;;;9.40;99.90;;;;;;5081663;28;20502;-74
2022/05/12 01:43:15;;;;;;;9.20;2.83;;;9.30;99.90;;;;;;5044631;28;20059;-74
2022/05/12 01:45:41;;;;;;;9.02;2.90;;;9.40;99.90;;;;;;5083559;28;20171;-70
2022/05/12 01:48:09;;;;;;;6.75;2.90;;;9.30;99.90;;;;;;5052171;28;20539;-74
2022/05/12 01:50:35;;;;;;;5.20;2.40;;;9.30;99.90;;;;;;5054330;28;20491;-73
2022/05/12 01:53:00;;;;;;;7.20;2.50;;;9.20;99.90;;;;;;5055748;28;20049;-72
2022/05/12 01:55:27;;;;;;;12.18;3.03;;;9.10;99.90;;;;;;5051205;28;20136;-73
2022/05/12 01:57:53;;;;;;;6.45;2.80;;;9.00;99.90;;;;;;5051032;28;20087;-74
2022/05/12 02:00:25;;;;;;;6.25;2.88;;;9.00;99.90;;;;;;5053491;28;20464;-74
2022/05/12 02:02:51;;;;;;;7.95;2.60;;;8.90;99.90;;;;;;5049728;28;20029;-75
2022/05/12 02:05:17;;;;;;;11.25;2.75;;;8.90;99.90;;;;;;5083534;28;20036;-73
2022/05/12 02:07:45;;;;;;;7.72;2.80;;;8.80;99.90;;;;;;5067570;28;20082;-73
2022/05/12 02:10:18;;;;;;;8.40;2.70;;;8.90;99.90;;;;;;5056231;28;20097;-74
2022/05/12 02:12:43;;;;;;;6.45;2.67;;;8.80;99.90;;;;;;5063482;28;20032;-73
2022/05/12 02:15:10;;;;;;;8.82;2.70;;;8.80;99.90;;;;;;5037912;28;20041;-73
2022/05/12 02:17:36;;;;;;;10.18;3.08;;;8.80;99.90;;;;;;5066905;28;20037;-74
2022/05/12 02:20:02;;;;;;;8.32;2.65;;;8.80;99.90;;;;;;5057504;28;20039;-73
2022/05/12 02:22:27;;;;;;;7.57;3.08;;;8.80;99.90;;;;;;5037319;28;20037;-71
2022/05/12 02:24:53;;;;;;;10.75;2.67;;;8.80;99.90;;;;;;5058048;28;20041;-71
2022/05/12 02:27:20;;;;;;;14.43;3.25;;;8.80;99.90;;;;;;5051130;28;20134;-71
2022/05/12 02:29:46;;;;;;;12.35;3.00;;;8.80;99.90;;;;;;5051023;28;20037;-70
2022/05/12 02:32:11;;;;;;;12.63;3.20;;;8.70;99.90;;;;;;5054569;28;20056;-72
2022/05/12 02:34:37;;;;;;;16.48;3.20;;;8.80;99.90;;;;;;5077899;28;20040;-71
2022/05/12 02:37:05;;;;;;;14.63;3.35;;;8.90;99.90;;;;;;5082295;28;20045;-72
2022/05/12 02:39:35;;;;;;;14.60;3.15;;;8.80;99.90;;;;;;5080020;28;20060;-73
2022/05/12 02:42:01;;;;;;;16.23;3.38;;;8.80;99.90;;;;;;5053301;28;20447;-72
2022/05/12 02:44:27;;;;;;;14.32;3.83;;;8.90;99.90;;;;;;5054482;28;20119;-72
2022/05/12 02:46:52;;;;;;;11.18;3.35;;;8.80;99.90;;;;;;5048531;28;20131;-70
2022/05/12 02:49:18;;;;;;;15.88;4.22;;;8.90;99.90;;;;;;5052363;28;20045;-73
2022/05/12 02:51:43;;;;;;;19.92;4.15;;;8.90;99.90;;;;;;5050648;28;20550;-71
2022/05/12 02:54:11;;;;;;;15.45;3.50;;;9.00;99.90;;;;;;5052710;28;20123;-72
2022/05/12 02:56:37;;;;;;;13.82;3.63;;;8.90;99.90;;;;;;5051867;28;20115;-73
2022/05/12 02:59:04;;;;;;;16.52;4.30;;;8.90;99.90;;;;;;5062204;28;20033;-70
2022/05/12 03:01:30;;;;;;;18.10;4.72;;;8.90;99.90;;;;;;5054152;28;20072;-72
2022/05/12 03:03:55;;;;;;;16.50;4.05;;;9.00;99.90;;;;;;5052770;28;20029;-72
2022/05/12 03:06:21;;;;;;;22.45;3.92;;;9.00;99.90;;;;;;5050856;28;20027;-71
2022/05/12 03:08:46;;;;;;;13.20;3.88;;;9.00;99.90;;;;;;5046209;28;20128;-72
2022/05/12 03:11:12;;;;;;;11.75;4.28;;;9.00;99.90;;;;;;5052635;28;20037;-71
2022/05/12 03:13:37;;;;;;;16.63;4.28;;;9.00;99.90;;;;;;5053984;28;20404;-74
2022/05/12 03:16:03;;;;;;;14.90;4.68;;;9.00;99.90;;;;;;5033432;28;20475;-72
2022/05/12 03:18:29;;;;;;;16.27;4.55;;;8.90;99.90;;;;;;5083376;28;20041;-72
2022/05/12 03:20:55;;;;;;;19.23;4.78;;;8.90;99.90;;;;;;5052650;28;20373;-73
2022/05/12 03:23:23;;;;;;;12.63;4.53;;;9.00;99.90;;;;;;5064684;28;20064;-73
2022/05/12 03:25:50;;;;;;;16.88;4.78;;;8.90;99.90;;;;;;5054600;28;20585;-73
2022/05/12 03:28:15;;;;;;;13.55;4.70;;;9.00;99.90;;;;;;5057414;28;20093;-75
2022/05/12 03:30:44;;;;;;;21.13;5.00;;;9.00;99.90;;;;;;5056001;28;20040;-74
2022/05/12 03:33:10;;;;;;;16.25;5.05;;;8.90;99.90;;;;;;5050223;28;20040;-74
2022/05/12 03:35:36;;;;;;;11.88;5.40;;;8.90;99.90;;;;;;5049909;28;20063;-74
2022/05/12 03:38:06;;;;;;;19.20;5.22;;;8.90;99.90;;;;;;5037997;28;20052;-73
2022/05/12 03:40:32;;;;;;;15.82;5.32;;;9.00;99.90;;;;;;5065409;28;20041;-72
2022/05/12 03:42:59;;;;;;;17.83;5.53;;;8.80;99.90;;;;;;5042886;28;20075;-74
2022/05/12 03:45:33;;;;;;;15.43;5.07;;;8.90;99.90;;;;;;5050239;28;20051;-74
2022/05/12 03:47:59;;;;;;;11.07;4.32;;;8.90;99.90;;;;;;5042534;28;20076;-74
2022/05/12 03:50:27;;;;;;;17.23;4.38;;;8.80;99.90;;;;;;5062976;28;20071;-74
2022/05/12 03:52:54;;;;;;;13.85;4.97;;;8.70;99.90;;;;;;5051032;28;20043;-74
2022/05/12 03:55:23;;;;;;;17.40;5.30;;;8.70;99.90;;;;;;5049271;28;20106;-75
2022/05/12 03:57:51;;;;;;;18.58;4.90;;;8.70;99.90;;;;;;5051146;28;20036;-74
2022/05/12 04:00:24;;;;;;;17.33;5.13;;;8.60;99.90;;;;;;5052895;28;20033;-74
2022/05/12 04:02:49;;;;;;;;;;;8.60;99.90;;;;;;5055585;28;20037;-73
2022/05/12 04:05:15;;;;;;;16.42;5.13;;;8.60;99.90;;;;;;5069265;28;19920;-73
2022/05/12 04:07:43;;;;;;;14.30;4.43;;;8.60;99.90;;;;;;5053021;28;20411;-75
2022/05/12 04:10:11;;;;;;;18.00;5.57;;;8.50;99.90;;;;;;5051130;28;20090;-75
2022/05/12 04:12:36;;;;;;;20.92;5.50;;;8.50;99.90;;;;;;5030444;28;20041;-75
2022/05/12 04:15:04;;;;;;;21.90;5.90;;;8.50;99.90;;;;;;5050594;28;20048;-75
2022/05/12 04:17:29;;;;;;;14.13;5.38;;;8.60;99.90;;;;;;5049434;28;20072;-75
2022/05/12 04:19:55;;;;;;;19.80;5.90;;;8.60;99.90;;;;;;5048659;28;20079;-73
2022/05/12 04:22:20;;;;;;;20.10;6.47;;;8.70;99.90;;;;;;5018603;28;20041;-74
2022/05/12 04:24:46;;;;;;;21.27;6.05;;;8.60;99.90;;;;;;5053173;28;20091;-75
2022/05/12 04:27:12;;;;;;;22.88;7.70;;;8.70;99.90;;;;;;5044323;28;20033;-75
2022/05/12 04:29:42;;;;;;;23.08;7.40;;;8.70;99.90;;;;;;5045488;28;20041;-74
2022/05/12 04:32:09;;;;;;;23.40;7.70;;;8.70;99.90;;;;;;5030895;28;20046;-74
2022/05/12 04:37:29;;;;;;;25.25;8.55;;;8.90;99.90;;;;;;5041113;28;20102;-74
2022/05/12 04:39:55;;;;;;;26.83;8.75;;;8.90;99.90;;;;;;5050101;28;20378;-74
2022/05/12 04:42:20;;;;;;;23.23;8.68;;;8.90;99.90;;;;;;5051236;28;20052;-73
2022/05/12 04:44:46;;;;;;;19.90;9.63;;;8.90;99.90;;;;;;5085265;28;20037;-75
2022/05/12 04:47:11;;;;;;;21.63;9.20;;;9.00;99.90;;;;;;5051024;28;20037;-73
2022/05/12 04:49:37;;;;;;;28.33;10.38;;;9.20;99.90;;;;;;5034893;28;20045;-73
2022/05/12 04:52:12;;;;;;;29.70;10.68;;;9.20;99.90;;;;;;5045509;28;20042;-73
2022/05/12 04:54:38;;;;;;;25.52;10.38;;;9.30;99.90;;;;;;5052383;28;20049;-73
2022/05/12 04:57:04;;;;;;;26.38;10.60;;;9.40;99.90;;;;;;5054715;28;20078;-74
2022/05/12 04:59:29;;;;;;;26.05;11.18;;;9.40;99.90;;;;;;5052934;28;20032;-73
2022/05/12 05:01:55;;;;;;;33.10;11.80;;;9.30;99.90;;;;;;5060933;28;20082;-71
2022/05/12 05:04:21;;;;;;;23.23;10.48;;;9.50;99.90;;;;;;5061758;28;20098;-73
2022/05/12 05:06:46;;;;;;;26.50;10.82;;;9.50;99.90;;;;;;5060664;28;20037;-69
2022/05/12 05:09:12;;;;;;;30.25;10.88;;;9.50;99.90;;;;;;5051795;28;20043;-72
2022/05/12 05:11:38;;;;;;;23.02;10.43;;;9.70;99.90;;;;;;5049205;28;20509;-74
2022/05/12 05:14:04;;;;;;;27.90;10.43;;;9.70;99.90;;;;;;5051939;28;20055;-69
2022/05/12 05:16:30;;;;;;;27.27;10.38;;;9.80;99.90;;;;;;5034751;28;20036;-72
2022/05/12 05:18:56;;;;;;;26.35;9.93;;;9.80;99.90;;;;;;5080512;28;20398;-70
2022/05/12 05:21:22;;;;;;;26.05;9.73;;;10.00;99.90;;;;;;5052415;28;20363;-72
2022/05/12 05:23:47;;;;;;;24.50;9.48;;;10.00;99.90;;;;;;5051371;28;20116;-71
2022/05/12 05:26:13;;;;;;;32.47;10.45;;;10.10;99.90;;;;;;5052800;28;20430;-70
2022/05/12 05:28:39;;;;;;;25.60;9.50;;;10.20;99.90;;;;;;5058487;28;20076;-72
2022/05/12 05:31:05;;;;;;;25.02;9.40;;;10.20;99.90;;;;;;5062831;28;20407;-69
2022/05/12 05:33:32;;;;;;;26.67;10.02;;;10.40;99.90;;;;;;5055355;28;20044;-71
2022/05/12 05:35:58;;;;;;;27.65;10.98;;;10.30;99.90;;;;;;5061372;28;20047;-71
2022/05/12 05:38:24;;;;;;;28.88;9.80;;;10.60;99.90;;;;;;5060543;28;20048;-70
2022/05/12 05:40:50;;;;;;;24.80;11.30;;;10.50;99.90;;;;;;5055549;28;20119;-70
2022/05/12 05:43:16;;;;;;;29.90;11.35;;;10.70;99.90;;;;;;5053975;28;20124;-72
2022/05/12 05:45:41;;;;;;;31.42;12.18;;;10.80;99.90;;;;;;5029531;28;20381;-69
2022/05/12 05:48:07;;;;;;;28.42;11.38;;;11.00;99.90;;;;;;5051547;28;20044;-69
2022/05/12 05:53:25;;;;;;;29.08;11.00;;;11.20;99.90;;;;;;5052486;28;20051;-70
2022/05/12 05:55:55;;;;;;;30.02;11.27;;;11.30;99.90;;;;;;5048813;28;20472;-69
2022/05/12 05:58:21;;;;;;;24.67;10.65;;;11.40;99.90;;;;;;5046892;28;20074;-70
2022/05/12 06:00:47;;;;;;;27.27;11.70;;;11.40;99.90;;;;;;5052911;28;20044;-71
2022/05/12 06:03:15;;;;;;;26.55;12.85;;;11.70;99.90;;;;;;5051635;28;20040;-72
2022/05/12 06:05:41;;;;;;;22.70;10.52;;;11.60;99.90;;;;;;5061013;28;20033;-69
2022/05/12 06:08:10;;;;;;;29.13;11.10;;;11.90;99.90;;;;;;5066947;28;20495;-70
2022/05/12 06:10:36;;;;;;;29.75;10.95;;;11.90;99.90;;;;;;5060330;28;20511;-74
2022/05/12 06:13:03;;;;;;;27.63;10.32;;;12.10;99.90;;;;;;5058759;28;20123;-69
2022/05/12 06:15:29;;;;;;;20.48;10.50;;;12.20;99.90;;;;;;5062824;28;20052;-72
2022/05/12 06:17:55;;;;;;;20.95;8.35;;;12.20;99.90;;;;;;5062232;28;20051;-71
2022/05/12 06:20:22;;;;;;;25.38;8.48;;;12.20;99.90;;;;;;5064194;28;20469;-71
2022/05/12 06:22:48;;;;;;;23.80;8.35;;;12.30;99.90;;;;;;5061477;28;20047;-71
2022/05/12 06:25:16;;;;;;;23.90;8.48;;;12.40;99.90;;;;;;5057391;28;20045;-72
2022/05/12 06:27:43;;;;;;;25.85;8.15;;;12.50;99.90;;;;;;5053938;28;20139;-72
2022/05/12 06:30:12;;;;;;;17.15;6.68;;;12.50;99.90;;;;;;5075450;28;20067;-72
2022/05/12 06:32:40;;;;;;;19.13;6.60;;;12.70;99.90;;;;;;5048195;28;20116;-74
2022/05/12 06:35:07;;;;;;;18.92;6.15;;;12.70;99.90;;;;;;5057271;28;20041;-70
2022/05/12 06:37:35;;;;;;;18.08;6.60;;;12.80;99.90;;;;;;5052758;28;20427;-75
2022/05/12 06:40:01;;;;;;;19.02;6.60;;;12.90;99.90;;;;;;5042699;28;20396;-72
2022/05/12 06:42:27;;;;;;;15.48;5.82;;;12.90;99.90;;;;;;5045560;28;20029;-73
2022/05/12 06:44:54;;;;;;;19.50;6.07;;;13.00;99.90;;;;;;5041663;28;20059;-71
2022/05/12 06:47:19;;;;;;;22.25;7.07;;;13.00;99.90;;;;;;5050866;28;20115;-72
2022/05/12 06:49:49;;;;;;;18.00;5.57;;;13.10;99.90;;;;;;5057080;28;20119;-71
2022/05/12 06:52:15;;;;;;;18.38;5.13;;;13.30;99.90;;;;;;5063979;28;20427;-70
2022/05/12 06:54:41;;;;;;;13.00;4.97;;;13.30;99.90;;;;;;5052948;28;20098;-69
2022/05/12 06:57:07;;;;;;;17.23;5.10;;;13.40;99.90;;;;;;5049972;28;20150;-72
2022/05/12 06:59:37;;;;;;;15.60;4.93;;;13.50;99.90;;;;;;5054480;28;20410;-73
2022/05/12 07:02:03;;;;;;;13.40;4.82;;;13.60;99.90;;;;;;5082876;28;20033;-74
2022/05/12 07:04:31;;;;;;;10.32;4.65;;;13.60;99.90;;;;;;5032782;28;20043;-70
2022/05/12 07:06:56;;;;;;;14.15;5.07;;;13.70;99.90;;;;;;5050623;28;20048;-70
2022/05/12 07:09:22;;;;;;;12.05;4.57;;;13.70;99.90;;;;;;5060339;28;20051;-71
2022/05/12 07:11:48;;;;;;;18.50;5.75;;;13.80;99.90;;;;;;5053212;28;20060;-73
2022/05/12 07:14:17;;;;;;;11.82;4.40;;;13.90;99.90;;;;;;5050621;28;20033;-72
2022/05/12 07:16:43;;;;;;;11.13;4.10;;;13.90;99.90;;;;;;5056929;28;20406;-73
2022/05/12 07:19:11;;;;;;;16.50;4.60;;;14.00;99.90;;;;;;5056159;28;20040;-69
2022/05/12 07:27:05;;;;;;;11.60;4.28;;;14.20;99.90;;;;;;5076264;28;20063;-71
2022/05/12 07:29:34;;;;;;;14.23;4.00;;;14.30;99.90;;;;;;5043711;28;20464;-71
2022/05/12 07:31:59;;;;;;;10.50;3.60;;;14.30;99.90;;;;;;5067813;28;20487;-69
2022/05/12 07:34:25;;;;;;;14.13;3.50;;;14.20;99.90;;;;;;5051877;28;20048;-71
2022/05/12 07:36:51;;;;;;;11.25;3.80;;;14.10;99.90;;;;;;5082718;28;20037;-71
2022/05/12 07:39:25;;;;;;;12.00;3.47;;;14.00;99.90;;;;;;5050357;28;20047;-72
2022/05/12 07:41:51;;;;;;;8.50;3.60;;;13.90;99.90;;;;;;5051070;28;20047;-71
2022/05/12 07:44:19;;;;;;;13.45;3.95;;;14.10;99.90;;;;;;5056393;28;20483;-76
2022/05/12 07:46:45;;;;;;;13.32;3.80;;;14.20;99.90;;;;;;5047695;28;20090;-72
2022/05/12 07:49:11;;;;;;;19.77;4.35;;;14.30;99.90;;;;;;5051746;28;20448;-72
2022/05/12 07:51:37;;;;;;;14.13;3.92;;;14.30;99.90;;;;;;5061416;28;20086;-73
2022/05/12 07:54:03;;;;;;;14.20;3.45;;;14.30;99.90;;;;;;5067573;28;20052;-74
2022/05/12 07:56:29;;;;;;;16.83;4.30;;;14.50;99.90;;;;;;5055553;28;20021;-72
2022/05/12 07:58:58;;;;;;;11.30;3.92;;;14.70;99.90;;;;;;5057045;28;20059;-70
2022/05/12 08:01:25;;;;;;;18.55;3.80;;;14.80;99.90;;;;;;5064404;28;20036;-71
2022/05/12 08:03:52;;;;;;;13.30;3.97;;;14.80;99.90;;;;;;5051332;28;20124;-73
2022/05/12 08:06:18;;;;;;;17.45;4.55;;;14.90;99.90;;;;;;5051171;28;20045;-73
2022/05/12 08:08:46;;;;;;;14.77;6.15;;;15.00;99.90;;;;;;5052892;28;20266;-77
2022/05/12 08:11:12;;;;;;;13.52;4.63;;;15.20;99.90;;;;;;5051426;28;20077;-70
2022/05/12 08:13:39;;;;;;;12.38;4.35;;;15.30;99.90;;;;;;5050672;28;20045;-72
2022/05/12 08:16:05;;;;;;;10.35;3.78;;;15.40;99.90;;;;;;5053739;28;20116;-72
2022/05/12 08:18:32;;;;;;;16.15;4.28;;;15.50;99.90;;;;;;5055289;28;20075;-70
2022/05/12 08:20:58;;;;;;;10.55;3.80;;;15.40;99.90;;;;;;5080753;28;20044;-71
2022/05/12 08:23:24;;;;;;;12.80;3.85;;;15.30;99.90;;;;;;5058849;28;20028;-70
2022/05/12 08:25:51;;;;;;;11.23;3.75;;;15.40;99.90;;;;;;5056895;28;20467;-71
2022/05/12 08:28:19;;;;;;;10.25;3.67;;;15.30;99.90;;;;;;5060506;28;20045;-74
2022/05/12 08:30:45;;;;;;;9.98;4.13;;;15.00;99.90;;;;;;5085313;28;20535;-76
2022/05/12 08:33:11;;;;;;;13.93;4.32;;;15.00;99.90;;;;;;5062038;28;20108;-72
2022/05/12 08:35:37;;;;;;;13.13;5.03;;;15.20;99.90;;;;;;5048903;28;20392;-76
2022/05/12 08:38:04;;;;;;;9.98;4.40;;;15.50;99.90;;;;;;5060312;28;20048;-74
2022/05/12 08:40:54;;;;;;;14.55;4.13;;;15.70;99.90;;;;;;5029786;28;20113;-73
2022/05/12 08:43:48;;;;;;;12.93;4.65;;;15.80;99.90;;;;;;5043639;28;20140;-72
2022/05/12 08:46:19;;;;;;;13.23;3.40;;;15.70;99.90;;;;;;5040492;28;20048;-74
2022/05/12 08:48:46;;;;;;;11.85;4.45;;;15.60;99.90;;;;;;5048854;28;20044;-71
2022/05/12 08:51:16;;;;;;;11.30;3.85;;;15.50;99.90;;;;;;5048905;28;20044;-74
2022/05/12 08:54:03;;;;;;;8.85;3.55;;;15.50;99.90;;;;;;5079414;28;20044;-75
2022/05/12 08:56:30;;;;;;;8.80;3.42;;;15.70;99.90;;;;;;5048688;28;20107;-70
2022/05/12 08:58:57;;;;;;;13.65;3.10;;;15.70;99.90;;;;;;5048339;28;20431;-76
2022/05/12 09:01:38;;;;;;;13.75;3.17;;;15.90;99.90;;;;;;5049580;28;20246;-72
2022/05/12 09:04:26;;;;;;;9.93;3.30;;;16.00;99.90;;;;;;5049368;28;20036;-75
2022/05/12 09:07:16;;;;;;;9.35;2.75;;;16.10;99.90;;;;;;5050563;28;20432;-75
2022/05/12 09:10:01;;;;;;;8.95;3.17;;;16.20;99.90;;;;;;5048447;28;20041;-72
2022/05/12 09:12:50;;;;;;;12.40;3.30;;;16.10;99.90;;;;;;5048170;28;20040;-74
2022/05/12 09:15:21;;;;;;;9.55;3.53;;;16.20;99.90;;;;;;5046947;28;20045;-77
2022/05/12 09:17:56;;;;;;;8.73;3.08;;;16.40;99.90;;;;;;5064643;28;20048;-76
2022/05/12 09:20:23;;;;;;;7.13;2.70;;;16.40;99.90;;;;;;5068994;28;20502;-72
2022/05/12 09:22:48;;;;;;;9.60;3.50;;;16.30;99.90;;;;;;5069930;28;20074;-71
2022/05/12 09:25:28;;;;;;;8.88;2.70;;;16.20;99.90;;;;;;5054632;28;20041;-75
2022/05/12 09:27:53;;;;;;;11.23;2.92;;;16.20;99.90;;;;;;5044186;28;20044;-73
2022/05/12 09:30:31;;;;;;;9.00;2.88;;;16.30;99.90;;;;;;5047990;28;20033;-70
2022/05/12 09:32:58;;;;;;;11.02;3.25;;;16.40;99.90;;;;;;5049278;28;20070;-78
2022/05/12 09:35:27;;;;;;;8.88;2.60;;;16.50;99.90;;;;;;5048810;28;20041;-70
2022/05/12 09:37:54;;;;;;;7.20;2.40;;;16.50;99.90;;;;;;5049236;28;20041;-73
2022/05/12 09:40:35;;;;;;;6.85;2.30;;;16.40;99.90;;;;;;5049764;28;20052;-77
2022/05/12 09:43:17;;;;;;;13.18;2.85;;;16.50;99.90;;;;;;5054505;28;20047;-74
2022/05/12 09:45:44;;;;;;;;;;;16.40;99.90;;;;;;5050997;28;20079;-77
2022/05/12 09:48:12;;;;;;;5.22;2.28;;;16.50;99.90;;;;;;5085484;28;19978;-75
2022/05/12 09:50:39;;;;;;;7.40;2.38;;;16.70;99.90;;;;;;5050782;28;20059;-73
2022/05/12 09:53:08;;;;;;;9.70;2.60;;;16.80;99.90;;;;;;5068604;28;20033;-77
2022/05/12 09:55:40;;;;;;;7.35;1.95;;;16.80;99.90;;;;;;5054426;28;20503;-74
2022/05/12 09:58:14;;;;;;;7.33;2.00;;;16.90;99.90;;;;;;5051727;28;20044;-72
2022/05/12 10:01:03;;;;;;;7.97;2.20;;;16.90;99.90;;;;;;5050376;28;20448;-75
2022/05/12 10:09:06;;;;;;;5.13;2.05;;;17.20;99.90;;;;;;5052095;28;20091;-74
2022/05/12 10:12:18;;;;;;;6.75;2.83;;;17.20;99.90;;;;;;5051353;28;20033;-77
2022/05/12 10:14:51;;;;;;;5.07;2.17;;;16.70;99.90;;;;;;5045743;28;20048;-71
2022/05/12 10:17:35;;;;;;;4.03;1.65;;;16.50;99.90;;;;;;5038121;28;20136;-77
2022/05/12 10:20:19;;;;;;;5.90;1.92;;;16.30;99.90;;;;;;5049809;28;20442;-73
2022/05/12 10:22:56;;;;;;;10.02;2.60;;;16.40;99.90;;;;;;5049812;28;20025;-72
2022/05/12 10:25:57;;;;;;;5.95;1.92;;;16.90;99.90;;;;;;5051216;28;20538;-70
2022/05/12 10:28:27;;;;;;;7.95;2.15;;;17.10;99.90;;;;;;5046398;28;20083;-74
2022/05/12 10:31:14;;;;;;;7.93;2.30;;;17.00;99.90;;;;;;5050018;28;20052;-76
2022/05/12 10:33:59;;;;;;;5.35;2.20;;;16.90;99.90;;;;;;5047830;28;20052;-73
2022/05/12 10:36:52;;;;;;;12.10;2.38;;;16.90;99.90;;;;;;5071820;28;20049;-75
2022/05/12 10:39:37;;;;;;;5.60;2.20;;;16.90;99.90;;;;;;5042869;28;20045;-70
2022/05/12 10:42:08;;;;;;;8.02;2.20;;;17.20;99.90;;;;;;5046791;28;20052;-76
2022/05/12 10:44:55;;;;;;;10.23;3.08;;;17.30;99.90;;;;;;5048176;28;20487;-74
2022/05/12 10:47:33;;;;;;;7.90;2.10;;;17.50;99.90;;;;;;5069012;28;20043;-77
2022/05/12 10:50:18;;;;;;;5.78;2.25;;;17.60;99.90;;;;;;5044599;28;20309;-77
2022/05/12 10:52:49;;;;;;;2.55;1.60;;;17.60;99.90;;;;;;5053921;28;20514;-69
2022/05/12 10:55:20;;;;;;;6.95;2.00;;;17.70;99.90;;;;;;5051679;28;20559;-78
2022/05/12 10:57:58;;;;;;;6.93;1.93;;;17.60;99.90;;;;;;5052551;28;20440;-72
2022/05/12 11:00:42;;;;;;;6.68;2.08;;;17.70;99.90;;;;;;5050515;28;20510;-78
2022/05/12 11:03:18;;;;;;;6.70;2.08;;;17.80;99.90;;;;;;5049293;28;20131;-77
2022/05/12 11:05:47;;;;;;;5.40;2.00;;;17.90;99.90;;;;;;5049885;28;20060;-78
2022/05/12 11:08:25;;;;;;;7.72;2.22;;;17.80;99.90;;;;;;5045453;28;20481;-74
2022/05/12 11:10:56;;;;;;;8.57;2.30;;;17.50;99.90;;;;;;5062669;28;20051;-70
2022/05/12 11:13:41;;;;;;;4.40;1.88;;;17.50;99.90;;;;;;5049940;28;20119;-72
2022/05/12 11:16:14;;;;;;;6.10;2.00;;;17.70;99.90;;;;;;5030684;28;20123;-70
2022/05/12 11:18:58;;;;;;;7.80;1.77;;;17.60;99.90;;;;;;5080464;28;20479;-71
2022/05/12 11:21:29;;;;;;;5.05;1.48;;;17.60;99.90;;;;;;5045937;28;20155;-70
2022/05/12 11:24:23;;;;;;;5.38;1.42;;;17.40;99.90;;;;;;5048705;28;20057;-68
2022/05/12 11:27:15;;;;;;;7.22;1.73;;;17.20;99.90;;;;;;5047542;28;20502;-72
2022/05/12 11:30:02;;;;;;;6.00;1.43;;;17.20;99.90;;;;;;5041597;28;20108;-76
2022/05/12 11:32:45;;;;;;;5.60;1.63;;;17.30;99.90;;;;;;5063025;28;20063;-70
2022/05/12 11:35:40;;;;;;;4.30;1.13;;;17.60;99.90;;;;;;5029088;28;20037;-68
2022/05/12 11:38:10;;;;;;;5.30;1.60;;;17.60;99.90;;;;;;5046898;28;20438;-80
2022/05/12 11:40:44;;;;;;;4.00;1.20;;;17.70;99.90;;;;;;5047803;28;20137;-74
2022/05/12 11:46:50;;;;;;;4.95;1.60;;;17.90;99.90;;;;;;5058038;28;20102;-70
2022/05/12 11:49:42;;;;;;;4.68;1.10;;;18.10;99.90;;;;;;5040646;28;20041;-73
2022/05/12 11:52:26;;;;;;;3.38;1.30;;;18.10;99.30;;;;;;5047703;28;20365;-76
2022/05/12 11:55:03;;;;;;;4.45;1.33;;;18.10;99.90;;;;;;5047021;28;20041;-79
2022/05/12 11:57:32;;;;;;;4.88;1.52;;;18.20;99.90;;;;;;5048177;28;20396;-74
2022/05/12 11:59:59;;;;;;;5.38;1.30;;;18.20;98.50;;;;;;5043608;28;20036;-67
2022/05/12 12:02:28;;;;;;;1.83;1.00;;;18.30;99.90;;;;;;5072955;28;20037;-69
2022/05/12 12:05:03;;;;;;;5.22;1.30;;;18.40;95.90;;;;;;5045522;28;20525;-76
2022/05/12 12:07:31;;;;;;;7.78;1.60;;;18.50;97.40;;;;;;5047498;28;20056;-68
2022/05/12 12:10:30;;;;;;;4.32;1.45;;;18.40;99.20;;;;;;5080047;28;20473;-73
2022/05/12 12:13:02;;;;;;;4.05;1.55;;;18.20;99.90;;;;;;5047673;28;20036;-74
2022/05/12 12:15:30;;;;;;;;;;;18.30;99.90;;;;;;5043820;28;20551;-76
2022/05/12 12:17:57;;;;;;;;;;;18.30;93.90;;;;;;5041942;28;19928;-68
2022/05/12 12:20:44;;;;;;;;;;;18.50;99.90;;;;;;5046082;28;19966;-71
2022/05/12 12:23:22;;;;;;;;;;;18.60;99.90;;;;;;5050782;28;20362;-69
2022/05/12 12:25:56;;;;;;;;;;;18.40;97.40;;;;;;5049747;28;19920;-68
2022/05/12 12:28:27;;;;;;;;;;;18.30;96.10;;;;;;5046331;28;19916;-70
2022/05/12 12:30:53;;;;;;;;;;;18.30;93.10;;;;;;5051005;28;19926;-75
2022/05/12 12:33:20;;;;;;;;;;;18.30;98.00;;;;;;5042708;28;19917;-71
2022/05/12 12:35:49;;;;;;;;;;;18.00;96.70;;;;;;5044645;28;20030;-76
2022/05/12 12:38:50;;;;;;;;;;;18.00;99.90;;;;;;5048284;28;19927;-66
2022/05/12 12:41:17;;;;;;;;;;;18.10;99.90;;;;;;5020692;28;20344;-72
2022/05/12 12:43:48;;;;;;;;;;;18.30;91.70;;;;;;5037894;28;19917;-73
2022/05/12 12:46:16;;;;;;;;;;;18.10;96.10;;;;;;5034864;28;20326;-73
2022/05/12 12:48:54;;;;;;;;;;;18.00;98.60;;;;;;5064751;28;19923;-69
2022/05/12 12:51:27;;;;;;;;;;;18.10;98.30;;;;;;5033225;28;19939;-71
2022/05/12 12:56:37;;;;;;;;;;;18.40;99.40;;;;;;5050328;28;19947;-73
2022/05/12 12:59:06;;;;;;;;;;;18.70;99.90;;;;;;5043580;28;19921;-71
2022/05/12 13:01:53;;;;;;;;;;;18.70;99.90;;;;;;5079810;28;19917;-68
2022/05/12 13:04:20;;;;;;;;;;;18.60;98.90;;;;;;5048434;28;20011;-72
2022/05/12 13:06:51;;;;;;;;;;;18.50;90.80;;;;;;5048490;28;19917;-73
2022/05/12 13:09:22;;;;;;;;;;;18.60;99.90;;;;;;5080653;28;20000;-68
2022/05/12 13:11:47;;;;;;;;;;;18.50;94.90;;;;;;5047779;28;19916;-69
2022/05/12 13:14:16;;;;;;;;;;;18.60;96.90;;;;;;5049270;28;19917;-73
2022/05/12 13:16:43;;;;;;;;;;;18.60;91.50;;;;;;5048652;28;19917;-68
2022/05/12 13:19:09;;;;;;;;;;;18.70;94.50;;;;;;5045200;28;19920;-75
2022/05/12 13:21:37;;;;;;;;;;;18.80;98.40;;;;;;5055152;28;20344;-70
2022/05/12 13:24:27;;;;;;;;;;;18.90;99.70;;;;;;5083352;28;20283;-72
2022/05/12 13:26:55;;;;;;;;;;;19.00;84.10;;;;;;5031489;28;19921;-72
2022/05/12 13:29:23;;;;;;;;;;;19.20;95.40;;;;;;5050252;28;20458;-70
2022/05/12 13:32:11;;;;;;;;;;;19.20;85.20;;;;;;5047096;28;19921;-68